Flight Track Log - Related Links

Times and Time Zones

All times are in EDT time to prevent confusion due to time zone crossing. See the EJA396 flight status page for this flight to view local times or setup timezone preferences in your user account.

Time Position Orientation Groundspeed Altitude Reporting Facility
EDT Latitude Longitude Course Direction KTS MPH feet Rate Location/Type
Sun 12:39:33 PM 42.1000 -87.8833 26° Northeast 159 183 1,600  Level Chicago TRACON
Sun 12:40:33 PM 42.1500 -87.8500 26° Northeast 165 190 2,000 960 Climbing Chicago TRACON
Sun 12:42:03 PM 42.2117 -87.9117 323° Northwest 209 241 4,000 1,263 Climbing Chicago Center
Sun 12:43:05 PM 42.2672 -87.9722 321° Northwest 256 295 5,200 2,244 Climbing Chicago Center
Sun 12:44:06 PM 42.3286 -88.0342 323° Northwest 272 313 8,600 3,024 Climbing Chicago Center
Sun 12:45:08 PM 42.3853 -88.0853 326° Northwest 272 313 11,400 3,097 Climbing Chicago Center
Sun 12:46:10 PM 42.4961 -88.0794 North 330 380 15,000 3,220 Climbing Chicago Center
Sun 12:47:11 PM 42.5975 -88.1106 347° North 371 427 18,000 3,024 Climbing Chicago Center
Sun 12:48:13 PM 42.7011 -88.1456 346° North 381 438 21,200 2,855 Climbing Chicago Center
Sun 12:49:15 PM 42.8047 -88.1800 346° North 383 441 23,900 1,366 Climbing Chicago Center
Sun 12:50:16 PM 42.8867 -88.2850 317° Northwest 401 461 24,000 49 Climbing Chicago Center
Sun 12:51:18 PM 42.9628 -88.3897 315° West 389 448 24,000 823 Level Chicago Center
Sun 12:52:20 PM 43.0375 -88.4925 315° West 382 440 25,700 976 Climbing Chicago Center
Sun 12:53:21 PM 43.1164 -88.6014 315° West 397 457 26,000 146 Climbing Chicago Center
Sun 12:54:23 PM 43.2111 -88.7314 315° West 398 458 26,000  Level Chicago Center
Sun 12:55:25 PM 43.2867 -88.8383 314° West 392 451 26,000  Level Chicago Center
Sun 12:56:26 PM 43.3617 -88.9431 315° West 386 444 26,000  Level Chicago Center
Sun 12:57:28 PM 43.4356 -89.0464 315° West 381 438 26,000  Level Chicago Center
Sun 12:58:30 PM 43.5086 -89.1492 314° West 377 434 26,000  Level Chicago Center
Sun 12:59:32 PM 43.5811 -89.2519 314° West 376 433 26,000  Level Chicago Center
Sun 01:00:33 PM 43.6539 -89.3542 315° West 376 433 26,000  Level Chicago Center
Sun 01:01:17 PM 43.7136 -89.4367 315° West 377 434 26,000  Level Minneapolis Center
Sun 01:02:19 PM 43.7844 -89.5403 313° West 376 433 26,000  Level Minneapolis Center
Sun 01:03:20 PM 43.8567 -89.6436 314° West 375 432 26,000  Level Minneapolis Center
Sun 01:04:21 PM 43.9278 -89.7494 313° West 375 432 26,000  Level Minneapolis Center
Sun 01:05:23 PM 43.9750 -89.8728 298° West 369 425 26,000  Level Minneapolis Center
Sun 01:06:24 PM 44.0219 -89.9958 298° West 366 421 26,000  Level Minneapolis Center
Sun 01:07:45 PM 44.0875 -90.1686 298° West 363 418 26,000  Level Chicago Center
Sun 01:08:26 PM 44.1250 -90.2658 298° West 362 417 26,000  Level Minneapolis Center
Sun 01:09:28 PM 44.1725 -90.3878 299° West 361 415 26,000  Level Minneapolis Center
Sun 01:10:29 PM 44.2192 -90.5111 298° West 360 414 26,000 -787 Level Minneapolis Center
Sun 01:11:30 PM 44.2642 -90.6286 298° West 359 413 24,400 -1,659 Descending Minneapolis Center
Sun 01:12:32 PM 44.3167 -90.7697 298° West 389 448 22,600 -1,561 Descending Minneapolis Center
Sun 01:13:33 PM 44.3656 -90.9014 297° West 387 445 21,200 -1,475 Descending Minneapolis Center
Sun 01:14:34 PM 44.4186 -91.0417 298° West 381 438 19,600 -1,426 Descending Minneapolis Center
Sun 01:15:35 PM 44.4658 -91.1697 297° West 377 434 18,300 -1,268 Descending Minneapolis Center
Sun 01:16:37 PM 44.5119 -91.2964 297° West 373 429 17,000 -1,306 Descending Minneapolis Center
Sun 01:17:39 PM 44.5578 -91.4208 297° West 367 422 15,600 -1,317 Descending Minneapolis Center
Sun 01:18:40 PM 44.6019 -91.5411 297° West 356 410 14,300 -1,268 Descending Minneapolis Center
Sun 01:19:42 PM 44.6467 -91.6614 298° West 351 404 13,000 -1,366 Descending Minneapolis Center
Sun 01:20:43 PM 44.6975 -91.8044 297° West 349 402 11,500 -1,268 Descending Minneapolis Center
Sun 01:21:45 PM 44.7375 -91.9108 298° West 305 351 10,400 -1,024 Descending Minneapolis Center
Sun 01:22:46 PM 44.7694 -92.0056 295° West 271 312 9,400 -1,033 Descending Minneapolis Center
Sun 01:23:47 PM 44.8050 -92.1019 297° West 277 319 8,300 -1,024 Descending Minneapolis Center
Sun 01:24:49 PM 44.8392 -92.1969 297° West 276 318 7,300 -976 Descending Minneapolis Center
Sun 01:25:50 PM 44.8719 -92.2892 297° West 270 311 6,300 -585 Descending Minneapolis Center
Sun 01:26:52 PM 44.8961 -92.3844 290° West 263 303 6,100 -780 Descending Minneapolis Center
Sun 01:27:53 PM 44.9136 -92.4828 284° West 261 300 4,700 -1,328 Descending Minneapolis Center
Sun 01:28:54 PM 44.9325 -92.5828 285° West 224 258 3,400 -634 Descending Minneapolis Center
Sun 01:29:56 PM 44.9469 -92.6639 284° West 215 247 3,400  Level Minneapolis Center
Sun 01:30:57 PM 44.9631 -92.7519 285° West 228 262 3,400 -49 Level Minneapolis Center
Sun 01:31:59 PM 44.9789 -92.8392 284° West 229 264 3,300 -537 Descending Minneapolis Center
Sun 01:33:00 PM 44.9900 -92.9281 280° West 231 266 2,300 -585 Descending Minneapolis Center
Sun 01:34:02 PM 44.9872 -93.0117 267° West 217 250 2,100 -293 Descending Minneapolis Center
Sun 01:35:03 PM 44.9758 -93.0692 254° West 151 174 1,700 -537 Descending Minneapolis Center
Sun 01:36:05 PM 44.9467 -93.0714 183° South 116 133 1,000 -677 Descending Minneapolis Center
Sun 01:38:00 PM 44.9333 -93.0500 133° Southeast  Level FlightAware Approximate
Sun 01:45:00 PM 44.9346 -93.0603 133° Southeast  Level Estimated

Login

Don't have an account? Register now (free) for customized features, flight alerts, and more!